sensor_id;sensor_type;location;lat;lon;timestamp;P1;durP1;ratioP1;P2;durP2;ratioP2
10529;SDS011;5313;48.834;9.228;2022-11-13T00:00:24;83.90;;;24.73;;
10529;SDS011;5313;48.834;9.228;2022-11-13T00:02:50;34.50;;;21.63;;
10529;SDS011;5313;48.834;9.228;2022-11-13T00:05:16;27.30;;;20.70;;
10529;SDS011;5313;48.834;9.228;2022-11-13T00:07:41;36.07;;;23.40;;
10529;SDS011;5313;48.834;9.228;2022-11-13T00:10:07;29.40;;;20.90;;
10529;SDS011;5313;48.834;9.228;2022-11-13T00:12:33;40.27;;;22.30;;
10529;SDS011;5313;48.834;9.228;2022-11-13T00:14:58;31.77;;;22.30;;
10529;SDS011;5313;48.834;9.228;2022-11-13T00:17:24;34.27;;;22.80;;
10529;SDS011;5313;48.834;9.228;2022-11-13T00:19:49;32.57;;;22.00;;
10529;SDS011;5313;48.834;9.228;2022-11-13T00:22:15;41.77;;;23.97;;
10529;SDS011;5313;48.834;9.228;2022-11-13T00:24:40;40.90;;;23.40;;
10529;SDS011;5313;48.834;9.228;2022-11-13T00:27:06;31.93;;;21.83;;
10529;SDS011;5313;48.834;9.228;2022-11-13T00:29:31;36.87;;;22.87;;
10529;SDS011;5313;48.834;9.228;2022-11-13T00:31:57;35.80;;;23.10;;
10529;SDS011;5313;48.834;9.228;2022-11-13T00:34:22;49.03;;;22.57;;
10529;SDS011;5313;48.834;9.228;2022-11-13T00:36:48;41.10;;;21.60;;
10529;SDS011;5313;48.834;9.228;2022-11-13T00:39:13;39.67;;;22.83;;
10529;SDS011;5313;48.834;9.228;2022-11-13T00:41:39;41.27;;;22.23;;
10529;SDS011;5313;48.834;9.228;2022-11-13T00:44:04;37.03;;;18.37;;
10529;SDS011;5313;48.834;9.228;2022-11-13T00:46:30;36.03;;;17.17;;
10529;SDS011;5313;48.834;9.228;2022-11-13T00:48:56;41.87;;;17.10;;
10529;SDS011;5313;48.834;9.228;2022-11-13T00:51:21;34.20;;;16.63;;
10529;SDS011;5313;48.834;9.228;2022-11-13T00:53:47;41.93;;;15.83;;
10529;SDS011;5313;48.834;9.228;2022-11-13T00:56:12;33.27;;;15.77;;
10529;SDS011;5313;48.834;9.228;2022-11-13T00:58:38;36.70;;;15.70;;
10529;SDS011;5313;48.834;9.228;2022-11-13T01:01:05;47.53;;;17.20;;
10529;SDS011;5313;48.834;9.228;2022-11-13T01:03:32;50.03;;;17.30;;
10529;SDS011;5313;48.834;9.228;2022-11-13T01:05:58;44.83;;;16.53;;
10529;SDS011;5313;48.834;9.228;2022-11-13T01:08:24;34.33;;;15.70;;
10529;SDS011;5313;48.834;9.228;2022-11-13T01:10:49;42.10;;;17.10;;
10529;SDS011;5313;48.834;9.228;2022-11-13T01:13:16;26.30;;;15.50;;
10529;SDS011;5313;48.834;9.228;2022-11-13T01:15:42;33.40;;;15.80;;
10529;SDS011;5313;48.834;9.228;2022-11-13T01:18:08;26.67;;;16.00;;
10529;SDS011;5313;48.834;9.228;2022-11-13T01:20:35;25.50;;;15.33;;
10529;SDS011;5313;48.834;9.228;2022-11-13T01:23:01;29.80;;;16.73;;
10529;SDS011;5313;48.834;9.228;2022-11-13T01:25:27;34.00;;;17.77;;
10529;SDS011;5313;48.834;9.228;2022-11-13T01:27:53;42.00;;;18.10;;
10529;SDS011;5313;48.834;9.228;2022-11-13T01:30:19;42.40;;;17.70;;
10529;SDS011;5313;48.834;9.228;2022-11-13T01:32:45;36.07;;;16.87;;
10529;SDS011;5313;48.834;9.228;2022-11-13T01:35:10;53.13;;;17.37;;
10529;SDS011;5313;48.834;9.228;2022-11-13T01:37:36;37.60;;;15.60;;
10529;SDS011;5313;48.834;9.228;2022-11-13T01:40:02;35.00;;;15.10;;
10529;SDS011;5313;48.834;9.228;2022-11-13T01:42:27;38.93;;;14.90;;
10529;SDS011;5313;48.834;9.228;2022-11-13T01:44:54;34.13;;;15.23;;
10529;SDS011;5313;48.834;9.228;2022-11-13T01:47:23;85.97;;;17.53;;
10529;SDS011;5313;48.834;9.228;2022-11-13T01:49:54;62.37;;;17.13;;
10529;SDS011;5313;48.834;9.228;2022-11-13T01:52:35;80.73;;;18.10;;
10529;SDS011;5313;48.834;9.228;2022-11-13T01:55:08;96.77;;;18.43;;
10529;SDS011;5313;48.834;9.228;2022-11-13T01:57:37;99.53;;;18.03;;
10529;SDS011;5313;48.834;9.228;2022-11-13T02:00:04;140.47;;;20.97;;
10529;SDS011;5313;48.834;9.228;2022-11-13T02:02:32;81.53;;;18.40;;
10529;SDS011;5313;48.834;9.228;2022-11-13T02:04:58;124.13;;;19.63;;
10529;SDS011;5313;48.834;9.228;2022-11-13T02:07:23;61.57;;;18.37;;
10529;SDS011;5313;48.834;9.228;2022-11-13T02:09:51;81.83;;;18.70;;
10529;SDS011;5313;48.834;9.228;2022-11-13T02:12:33;87.63;;;20.03;;
10529;SDS011;5313;48.834;9.228;2022-11-13T02:15:03;48.47;;;19.97;;
10529;SDS011;5313;48.834;9.228;2022-11-13T02:17:32;43.70;;;21.00;;
10529;SDS011;5313;48.834;9.228;2022-11-13T02:20:49;269.73;;;25.13;;
10529;SDS011;5313;48.834;9.228;2022-11-13T02:23:30;280.17;;;25.60;;
10529;SDS011;5313;48.834;9.228;2022-11-13T02:26:07;141.47;;;19.63;;
10529;SDS011;5313;48.834;9.228;2022-11-13T02:28:34;171.93;;;20.27;;
10529;SDS011;5313;48.834;9.228;2022-11-13T02:31:10;56.57;;;18.17;;
10529;SDS011;5313;48.834;9.228;2022-11-13T02:33:37;44.80;;;18.33;;
10529;SDS011;5313;48.834;9.228;2022-11-13T02:36:03;64.10;;;19.63;;
10529;SDS011;5313;48.834;9.228;2022-11-13T02:38:31;59.47;;;18.27;;
10529;SDS011;5313;48.834;9.228;2022-11-13T02:40:59;51.27;;;18.63;;
10529;SDS011;5313;48.834;9.228;2022-11-13T02:43:24;61.90;;;19.17;;
10529;SDS011;5313;48.834;9.228;2022-11-13T02:45:50;95.43;;;20.47;;
10529;SDS011;5313;48.834;9.228;2022-11-13T02:48:15;112.87;;;21.33;;
10529;SDS011;5313;48.834;9.228;2022-11-13T02:50:41;117.13;;;22.13;;
10529;SDS011;5313;48.834;9.228;2022-11-13T02:53:08;46.57;;;19.13;;
10529;SDS011;5313;48.834;9.228;2022-11-13T02:55:34;112.60;;;20.73;;
10529;SDS011;5313;48.834;9.228;2022-11-13T02:57:59;94.50;;;20.87;;
10529;SDS011;5313;48.834;9.228;2022-11-13T03:00:25;65.63;;;20.07;;
10529;SDS011;5313;48.834;9.228;2022-11-13T03:02:51;118.97;;;21.17;;
10529;SDS011;5313;48.834;9.228;2022-11-13T03:05:17;62.93;;;18.60;;
10529;SDS011;5313;48.834;9.228;2022-11-13T03:07:42;83.50;;;19.60;;
10529;SDS011;5313;48.834;9.228;2022-11-13T03:10:08;113.77;;;20.87;;
10529;SDS011;5313;48.834;9.228;2022-11-13T03:12:36;35.97;;;19.13;;
10529;SDS011;5313;48.834;9.228;2022-11-13T03:15:02;75.17;;;20.87;;
10529;SDS011;5313;48.834;9.228;2022-11-13T03:17:31;85.37;;;18.90;;
10529;SDS011;5313;48.834;9.228;2022-11-13T03:19:57;109.87;;;19.87;;
10529;SDS011;5313;48.834;9.228;2022-11-13T03:22:23;151.53;;;22.00;;
10529;SDS011;5313;48.834;9.228;2022-11-13T03:24:49;87.10;;;18.87;;
10529;SDS011;5313;48.834;9.228;2022-11-13T03:27:15;43.00;;;17.40;;
10529;SDS011;5313;48.834;9.228;2022-11-13T03:29:40;31.43;;;18.27;;
10529;SDS011;5313;48.834;9.228;2022-11-13T03:32:06;63.00;;;17.70;;
10529;SDS011;5313;48.834;9.228;2022-11-13T03:34:31;54.10;;;19.30;;
10529;SDS011;5313;48.834;9.228;2022-11-13T03:36:57;81.87;;;19.97;;
10529;SDS011;5313;48.834;9.228;2022-11-13T03:39:22;71.17;;;17.87;;
10529;SDS011;5313;48.834;9.228;2022-11-13T03:41:48;52.13;;;17.07;;
10529;SDS011;5313;48.834;9.228;2022-11-13T03:44:13;71.23;;;18.53;;
10529;SDS011;5313;48.834;9.228;2022-11-13T03:46:39;43.73;;;16.60;;
10529;SDS011;5313;48.834;9.228;2022-11-13T03:49:04;34.87;;;15.73;;
10529;SDS011;5313;48.834;9.228;2022-11-13T03:51:30;42.87;;;17.03;;
10529;SDS011;5313;48.834;9.228;2022-11-13T03:53:55;35.77;;;17.63;;
10529;SDS011;5313;48.834;9.228;2022-11-13T03:56:21;32.80;;;17.03;;
10529;SDS011;5313;48.834;9.228;2022-11-13T03:58:47;41.73;;;15.97;;
10529;SDS011;5313;48.834;9.228;2022-11-13T04:01:12;71.53;;;18.83;;
10529;SDS011;5313;48.834;9.228;2022-11-13T04:03:38;34.83;;;15.93;;
10529;SDS011;5313;48.834;9.228;2022-11-13T04:06:03;46.83;;;17.10;;
10529;SDS011;5313;48.834;9.228;2022-11-13T04:08:29;95.53;;;18.37;;
10529;SDS011;5313;48.834;9.228;2022-11-13T04:10:54;39.40;;;15.37;;
10529;SDS011;5313;48.834;9.228;2022-11-13T04:13:36;36.73;;;15.07;;
10529;SDS011;5313;48.834;9.228;2022-11-13T04:16:02;38.17;;;15.43;;
10529;SDS011;5313;48.834;9.228;2022-11-13T04:18:28;59.73;;;15.90;;
10529;SDS011;5313;48.834;9.228;2022-11-13T04:21:00;69.60;;;15.80;;
10529;SDS011;5313;48.834;9.228;2022-11-13T04:23:27;93.77;;;17.03;;
10529;SDS011;5313;48.834;9.228;2022-11-13T04:25:53;45.10;;;13.90;;
10529;SDS011;5313;48.834;9.228;2022-11-13T04:28:19;80.10;;;14.17;;
10529;SDS011;5313;48.834;9.228;2022-11-13T04:30:45;60.50;;;13.50;;
10529;SDS011;5313;48.834;9.228;2022-11-13T04:33:10;46.80;;;14.13;;
10529;SDS011;5313;48.834;9.228;2022-11-13T04:35:36;53.10;;;15.33;;
10529;SDS011;5313;48.834;9.228;2022-11-13T04:38:02;41.07;;;14.03;;
10529;SDS011;5313;48.834;9.228;2022-11-13T04:40:27;42.20;;;15.10;;
10529;SDS011;5313;48.834;9.228;2022-11-13T04:42:53;28.10;;;13.87;;
10529;SDS011;5313;48.834;9.228;2022-11-13T04:45:19;40.13;;;13.70;;
10529;SDS011;5313;48.834;9.228;2022-11-13T04:47:47;27.77;;;13.83;;
10529;SDS011;5313;48.834;9.228;2022-11-13T04:50:13;60.27;;;14.37;;
10529;SDS011;5313;48.834;9.228;2022-11-13T04:52:40;34.53;;;13.17;;
10529;SDS011;5313;48.834;9.228;2022-11-13T04:55:06;25.00;;;13.50;;
10529;SDS011;5313;48.834;9.228;2022-11-13T04:57:32;25.57;;;12.70;;
10529;SDS011;5313;48.834;9.228;2022-11-13T04:59:58;32.97;;;13.30;;
10529;SDS011;5313;48.834;9.228;2022-11-13T05:02:24;25.27;;;12.70;;
10529;SDS011;5313;48.834;9.228;2022-11-13T05:04:49;29.43;;;13.07;;
10529;SDS011;5313;48.834;9.228;2022-11-13T05:07:15;34.70;;;13.80;;
10529;SDS011;5313;48.834;9.228;2022-11-13T05:09:40;54.63;;;14.17;;
10529;SDS011;5313;48.834;9.228;2022-11-13T05:12:06;50.53;;;14.03;;
10529;SDS011;5313;48.834;9.228;2022-11-13T05:14:38;44.73;;;13.63;;
10529;SDS011;5313;48.834;9.228;2022-11-13T05:17:05;30.93;;;12.73;;
10529;SDS011;5313;48.834;9.228;2022-11-13T05:19:32;23.23;;;12.53;;
10529;SDS011;5313;48.834;9.228;2022-11-13T05:21:59;20.10;;;12.13;;
10529;SDS011;5313;48.834;9.228;2022-11-13T05:24:25;27.53;;;11.47;;
10529;SDS011;5313;48.834;9.228;2022-11-13T05:26:51;15.50;;;10.13;;
10529;SDS011;5313;48.834;9.228;2022-11-13T05:29:16;12.70;;;10.13;;
10529;SDS011;5313;48.834;9.228;2022-11-13T05:31:42;13.83;;;10.40;;
10529;SDS011;5313;48.834;9.228;2022-11-13T05:34:08;16.27;;;10.13;;
10529;SDS011;5313;48.834;9.228;2022-11-13T05:36:33;15.20;;;10.20;;
10529;SDS011;5313;48.834;9.228;2022-11-13T05:38:59;50.13;;;13.03;;
10529;SDS011;5313;48.834;9.228;2022-11-13T05:41:24;26.03;;;10.80;;
10529;SDS011;5313;48.834;9.228;2022-11-13T05:43:50;19.73;;;11.07;;
10529;SDS011;5313;48.834;9.228;2022-11-13T05:46:17;32.20;;;11.37;;
10529;SDS011;5313;48.834;9.228;2022-11-13T05:48:51;23.60;;;10.57;;
10529;SDS011;5313;48.834;9.228;2022-11-13T05:51:28;15.03;;;9.77;;
10529;SDS011;5313;48.834;9.228;2022-11-13T05:53:56;14.17;;;10.33;;
10529;SDS011;5313;48.834;9.228;2022-11-13T05:56:24;19.33;;;10.10;;
10529;SDS011;5313;48.834;9.228;2022-11-13T05:58:51;14.17;;;9.83;;
10529;SDS011;5313;48.834;9.228;2022-11-13T06:01:21;12.93;;;9.90;;
10529;SDS011;5313;48.834;9.228;2022-11-13T06:03:55;13.60;;;10.27;;
10529;SDS011;5313;48.834;9.228;2022-11-13T06:06:22;17.97;;;9.87;;
10529;SDS011;5313;48.834;9.228;2022-11-13T06:08:49;24.77;;;10.77;;
10529;SDS011;5313;48.834;9.228;2022-11-13T06:11:17;23.23;;;10.03;;
10529;SDS011;5313;48.834;9.228;2022-11-13T06:13:45;46.90;;;10.83;;
10529;SDS011;5313;48.834;9.228;2022-11-13T06:16:12;49.70;;;10.73;;
10529;SDS011;5313;48.834;9.228;2022-11-13T06:18:40;16.17;;;9.73;;
10529;SDS011;5313;48.834;9.228;2022-11-13T06:21:08;39.67;;;11.13;;
10529;SDS011;5313;48.834;9.228;2022-11-13T06:23:37;18.30;;;10.37;;
10529;SDS011;5313;48.834;9.228;2022-11-13T06:26:04;18.07;;;10.63;;
10529;SDS011;5313;48.834;9.228;2022-11-13T06:28:32;42.17;;;11.30;;
10529;SDS011;5313;48.834;9.228;2022-11-13T06:31:02;16.77;;;10.43;;
10529;SDS011;5313;48.834;9.228;2022-11-13T06:33:29;17.60;;;10.77;;
10529;SDS011;5313;48.834;9.228;2022-11-13T06:35:55;23.53;;;10.80;;
10529;SDS011;5313;48.834;9.228;2022-11-13T06:38:20;17.13;;;10.57;;
10529;SDS011;5313;48.834;9.228;2022-11-13T06:40:46;13.10;;;9.97;;
10529;SDS011;5313;48.834;9.228;2022-11-13T06:43:11;18.43;;;10.37;;
10529;SDS011;5313;48.834;9.228;2022-11-13T06:45:37;32.33;;;10.67;;
10529;SDS011;5313;48.834;9.228;2022-11-13T06:48:03;15.80;;;10.50;;
10529;SDS011;5313;48.834;9.228;2022-11-13T06:50:28;30.90;;;10.60;;
10529;SDS011;5313;48.834;9.228;2022-11-13T06:52:54;27.47;;;10.80;;
10529;SDS011;5313;48.834;9.228;2022-11-13T06:55:19;38.20;;;11.27;;
10529;SDS011;5313;48.834;9.228;2022-11-13T06:57:45;37.20;;;10.13;;
10529;SDS011;5313;48.834;9.228;2022-11-13T07:00:10;22.57;;;10.20;;
10529;SDS011;5313;48.834;9.228;2022-11-13T07:02:36;22.93;;;10.80;;
10529;SDS011;5313;48.834;9.228;2022-11-13T07:05:02;19.57;;;10.20;;
10529;SDS011;5313;48.834;9.228;2022-11-13T07:07:28;42.13;;;11.73;;
10529;SDS011;5313;48.834;9.228;2022-11-13T07:09:53;18.80;;;10.47;;
10529;SDS011;5313;48.834;9.228;2022-11-13T07:12:19;31.90;;;11.03;;
10529;SDS011;5313;48.834;9.228;2022-11-13T07:14:44;65.07;;;12.00;;
10529;SDS011;5313;48.834;9.228;2022-11-13T07:17:10;18.10;;;10.13;;
10529;SDS011;5313;48.834;9.228;2022-11-13T07:19:35;28.93;;;11.40;;
10529;SDS011;5313;48.834;9.228;2022-11-13T07:22:01;27.07;;;10.67;;
10529;SDS011;5313;48.834;9.228;2022-11-13T07:24:26;33.73;;;11.47;;
10529;SDS011;5313;48.834;9.228;2022-11-13T07:26:52;26.37;;;11.27;;
10529;SDS011;5313;48.834;9.228;2022-11-13T07:29:17;16.37;;;11.50;;
10529;SDS011;5313;48.834;9.228;2022-11-13T07:31:43;16.00;;;11.00;;
10529;SDS011;5313;48.834;9.228;2022-11-13T07:34:08;19.07;;;11.07;;
10529;SDS011;5313;48.834;9.228;2022-11-13T07:36:34;23.97;;;11.20;;
10529;SDS011;5313;48.834;9.228;2022-11-13T07:38:59;32.43;;;11.20;;
10529;SDS011;5313;48.834;9.228;2022-11-13T07:41:25;18.77;;;10.90;;
10529;SDS011;5313;48.834;9.228;2022-11-13T07:43:50;27.57;;;11.50;;
10529;SDS011;5313;48.834;9.228;2022-11-13T07:46:16;17.37;;;10.43;;
10529;SDS011;5313;48.834;9.228;2022-11-13T07:48:41;21.47;;;10.80;;
10529;SDS011;5313;48.834;9.228;2022-11-13T07:51:07;28.70;;;11.57;;
10529;SDS011;5313;48.834;9.228;2022-11-13T07:53:32;38.93;;;11.70;;
10529;SDS011;5313;48.834;9.228;2022-11-13T07:56:00;42.73;;;11.40;;
10529;SDS011;5313;48.834;9.228;2022-11-13T07:58:26;18.10;;;11.47;;
10529;SDS011;5313;48.834;9.228;2022-11-13T08:00:52;22.00;;;10.57;;
10529;SDS011;5313;48.834;9.228;2022-11-13T08:03:17;18.13;;;10.60;;
10529;SDS011;5313;48.834;9.228;2022-11-13T08:05:43;17.00;;;10.53;;
10529;SDS011;5313;48.834;9.228;2022-11-13T08:08:12;19.60;;;10.90;;
10529;SDS011;5313;48.834;9.228;2022-11-13T08:10:38;27.70;;;11.70;;
10529;SDS011;5313;48.834;9.228;2022-11-13T08:13:05;17.00;;;10.47;;
10529;SDS011;5313;48.834;9.228;2022-11-13T08:15:32;33.77;;;12.97;;
10529;SDS011;5313;48.834;9.228;2022-11-13T08:17:59;30.97;;;10.40;;
10529;SDS011;5313;48.834;9.228;2022-11-13T08:20:26;40.37;;;11.67;;
10529;SDS011;5313;48.834;9.228;2022-11-13T08:22:56;26.23;;;10.23;;
10529;SDS011;5313;48.834;9.228;2022-11-13T08:25:22;25.50;;;10.00;;
10529;SDS011;5313;48.834;9.228;2022-11-13T08:27:47;32.20;;;9.97;;
10529;SDS011;5313;48.834;9.228;2022-11-13T08:30:13;13.73;;;9.30;;
10529;SDS011;5313;48.834;9.228;2022-11-13T08:32:39;35.63;;;10.43;;
10529;SDS011;5313;48.834;9.228;2022-11-13T08:35:04;17.53;;;10.60;;
10529;SDS011;5313;48.834;9.228;2022-11-13T08:37:31;14.63;;;9.73;;
10529;SDS011;5313;48.834;9.228;2022-11-13T08:39:57;13.63;;;9.70;;
10529;SDS011;5313;48.834;9.228;2022-11-13T08:42:23;13.30;;;9.90;;
10529;SDS011;5313;48.834;9.228;2022-11-13T08:44:48;11.50;;;9.53;;
10529;SDS011;5313;48.834;9.228;2022-11-13T08:47:14;14.47;;;10.53;;
10529;SDS011;5313;48.834;9.228;2022-11-13T08:49:39;12.07;;;9.17;;
10529;SDS011;5313;48.834;9.228;2022-11-13T08:52:05;12.23;;;9.60;;
10529;SDS011;5313;48.834;9.228;2022-11-13T08:54:31;13.13;;;10.00;;
10529;SDS011;5313;48.834;9.228;2022-11-13T08:56:56;12.93;;;9.57;;
10529;SDS011;5313;48.834;9.228;2022-11-13T08:59:22;14.37;;;10.30;;
10529;SDS011;5313;48.834;9.228;2022-11-13T09:01:47;17.43;;;10.10;;
10529;SDS011;5313;48.834;9.228;2022-11-13T09:04:13;16.07;;;11.10;;
10529;SDS011;5313;48.834;9.228;2022-11-13T09:06:39;18.10;;;11.00;;
10529;SDS011;5313;48.834;9.228;2022-11-13T09:09:04;16.40;;;11.53;;
10529;SDS011;5313;48.834;9.228;2022-11-13T09:11:33;16.77;;;10.90;;
10529;SDS011;5313;48.834;9.228;2022-11-13T09:13:59;15.57;;;10.17;;
10529;SDS011;5313;48.834;9.228;2022-11-13T09:16:24;14.10;;;10.47;;
10529;SDS011;5313;48.834;9.228;2022-11-13T09:18:50;16.13;;;10.30;;
10529;SDS011;5313;48.834;9.228;2022-11-13T09:21:16;13.73;;;9.93;;
10529;SDS011;5313;48.834;9.228;2022-11-13T09:23:42;13.97;;;10.30;;
10529;SDS011;5313;48.834;9.228;2022-11-13T09:26:07;14.47;;;9.73;;
10529;SDS011;5313;48.834;9.228;2022-11-13T09:28:33;13.97;;;10.10;;
10529;SDS011;5313;48.834;9.228;2022-11-13T09:31:02;15.90;;;9.37;;
10529;SDS011;5313;48.834;9.228;2022-11-13T09:33:28;12.00;;;8.80;;
10529;SDS011;5313;48.834;9.228;2022-11-13T09:35:54;13.03;;;9.80;;
10529;SDS011;5313;48.834;9.228;2022-11-13T09:38:20;14.13;;;9.57;;
10529;SDS011;5313;48.834;9.228;2022-11-13T09:43:32;12.50;;;9.00;;
10529;SDS011;5313;48.834;9.228;2022-11-13T09:46:04;11.83;;;9.07;;
10529;SDS011;5313;48.834;9.228;2022-11-13T09:48:37;12.53;;;8.83;;
10529;SDS011;5313;48.834;9.228;2022-11-13T09:51:13;13.80;;;9.43;;
10529;SDS011;5313;48.834;9.228;2022-11-13T09:53:44;12.97;;;9.03;;
10529;SDS011;5313;48.834;9.228;2022-11-13T09:59:01;13.33;;;9.43;;
10529;SDS011;5313;48.834;9.228;2022-11-13T10:01:49;12.33;;;8.97;;
10529;SDS011;5313;48.834;9.228;2022-11-13T10:07:38;12.07;;;9.07;;
10529;SDS011;5313;48.834;9.228;2022-11-13T10:13:13;11.33;;;9.37;;
10529;SDS011;5313;48.834;9.228;2022-11-13T10:15:51;13.13;;;10.13;;
10529;SDS011;5313;48.834;9.228;2022-11-13T10:18:47;12.03;;;9.27;;
10529;SDS011;5313;48.834;9.228;2022-11-13T10:21:31;11.20;;;8.83;;
10529;SDS011;5313;48.834;9.228;2022-11-13T10:24:13;11.17;;;8.60;;
10529;SDS011;5313;48.834;9.228;2022-11-13T10:26:48;12.40;;;9.33;;
10529;SDS011;5313;48.834;9.228;2022-11-13T10:29:18;13.90;;;10.50;;
10529;SDS011;5313;48.834;9.228;2022-11-13T10:31:49;14.00;;;10.77;;
10529;SDS011;5313;48.834;9.228;2022-11-13T10:34:16;14.27;;;9.63;;
10529;SDS011;5313;48.834;9.228;2022-11-13T10:39:45;11.37;;;9.07;;
10529;SDS011;5313;48.834;9.228;2022-11-13T10:42:21;16.40;;;11.57;;
10529;SDS011;5313;48.834;9.228;2022-11-13T10:44:52;13.97;;;9.97;;
10529;SDS011;5313;48.834;9.228;2022-11-13T10:47:20;12.50;;;9.97;;
10529;SDS011;5313;48.834;9.228;2022-11-13T10:49:47;12.30;;;9.63;;
10529;SDS011;5313;48.834;9.228;2022-11-13T10:52:31;10.97;;;9.30;;
10529;SDS011;5313;48.834;9.228;2022-11-13T10:55:16;11.10;;;8.70;;
10529;SDS011;5313;48.834;9.228;2022-11-13T10:58:18;10.70;;;8.07;;
10529;SDS011;5313;48.834;9.228;2022-11-13T11:00:44;9.00;;;7.70;;
10529;SDS011;5313;48.834;9.228;2022-11-13T11:03:22;9.90;;;7.97;;
10529;SDS011;5313;48.834;9.228;2022-11-13T11:05:58;8.77;;;7.33;;
10529;SDS011;5313;48.834;9.228;2022-11-13T11:08:27;8.87;;;7.90;;
10529;SDS011;5313;48.834;9.228;2022-11-13T11:10:58;10.17;;;7.90;;
10529;SDS011;5313;48.834;9.228;2022-11-13T11:16:48;9.17;;;7.47;;
10529;SDS011;5313;48.834;9.228;2022-11-13T11:19:16;8.90;;;7.67;;
10529;SDS011;5313;48.834;9.228;2022-11-13T11:21:47;9.00;;;7.63;;
10529;SDS011;5313;48.834;9.228;2022-11-13T11:24:23;10.43;;;8.20;;
10529;SDS011;5313;48.834;9.228;2022-11-13T11:26:56;9.63;;;7.40;;
10529;SDS011;5313;48.834;9.228;2022-11-13T11:29:37;8.93;;;7.63;;
10529;SDS011;5313;48.834;9.228;2022-11-13T11:34:51;8.63;;;7.70;;
10529;SDS011;5313;48.834;9.228;2022-11-13T11:37:24;10.47;;;7.53;;
10529;SDS011;5313;48.834;9.228;2022-11-13T11:39:59;8.33;;;7.07;;
10529;SDS011;5313;48.834;9.228;2022-11-13T11:45:31;9.00;;;7.43;;
10529;SDS011;5313;48.834;9.228;2022-11-13T11:48:05;9.37;;;7.37;;
10529;SDS011;5313;48.834;9.228;2022-11-13T11:53:04;9.60;;;8.20;;
10529;SDS011;5313;48.834;9.228;2022-11-13T12:01:11;9.80;;;7.23;;
10529;SDS011;5313;48.834;9.228;2022-11-13T12:03:52;8.57;;;7.13;;
10529;SDS011;5313;48.834;9.228;2022-11-13T12:06:47;11.33;;;7.80;;
10529;SDS011;5313;48.834;9.228;2022-11-13T12:09:27;8.80;;;7.87;;
10529;SDS011;5313;48.834;9.228;2022-11-13T12:11:58;8.33;;;7.37;;
10529;SDS011;5313;48.834;9.228;2022-11-13T12:17:09;10.07;;;7.67;;
10529;SDS011;5313;48.834;9.228;2022-11-13T12:25:34;8.87;;;7.07;;
10529;SDS011;5313;48.834;9.228;2022-11-13T12:28:05;8.40;;;7.33;;
10529;SDS011;5313;48.834;9.228;2022-11-13T12:36:06;9.33;;;8.03;;
10529;SDS011;5313;48.834;9.228;2022-11-13T12:41:48;9.73;;;8.17;;
10529;SDS011;5313;48.834;9.228;2022-11-13T12:44:24;8.63;;;7.57;;
10529;SDS011;5313;48.834;9.228;2022-11-13T12:46:51;9.50;;;8.27;;
10529;SDS011;5313;48.834;9.228;2022-11-13T12:51:55;9.50;;;7.90;;
10529;SDS011;5313;48.834;9.228;2022-11-13T12:54:34;9.57;;;7.60;;
10529;SDS011;5313;48.834;9.228;2022-11-13T12:57:21;11.07;;;8.30;;
10529;SDS011;5313;48.834;9.228;2022-11-13T12:59:52;10.37;;;8.17;;
10529;SDS011;5313;48.834;9.228;2022-11-13T13:02:29;9.57;;;8.23;;
10529;SDS011;5313;48.834;9.228;2022-11-13T13:13:52;8.63;;;7.50;;
10529;SDS011;5313;48.834;9.228;2022-11-13T13:16:32;9.10;;;7.03;;
10529;SDS011;5313;48.834;9.228;2022-11-13T13:19:21;8.13;;;7.10;;
10529;SDS011;5313;48.834;9.228;2022-11-13T13:21:55;8.13;;;6.50;;
10529;SDS011;5313;48.834;9.228;2022-11-13T13:24:26;7.73;;;6.80;;
10529;SDS011;5313;48.834;9.228;2022-11-13T13:26:54;6.87;;;6.17;;
10529;SDS011;5313;48.834;9.228;2022-11-13T13:29:23;7.97;;;7.07;;
10529;SDS011;5313;48.834;9.228;2022-11-13T13:32:03;8.63;;;7.40;;
10529;SDS011;5313;48.834;9.228;2022-11-13T13:35:06;8.03;;;7.10;;
10529;SDS011;5313;48.834;9.228;2022-11-13T13:37:48;10.33;;;7.67;;
10529;SDS011;5313;48.834;9.228;2022-11-13T13:41:13;11.00;;;7.50;;
10529;SDS011;5313;48.834;9.228;2022-11-13T13:46:20;7.97;;;6.93;;
10529;SDS011;5313;48.834;9.228;2022-11-13T13:48:49;8.60;;;6.70;;
10529;SDS011;5313;48.834;9.228;2022-11-13T13:51:24;9.00;;;7.33;;
10529;SDS011;5313;48.834;9.228;2022-11-13T13:53:54;7.23;;;6.40;;
10529;SDS011;5313;48.834;9.228;2022-11-13T13:56:22;7.80;;;6.33;;
10529;SDS011;5313;48.834;9.228;2022-11-13T13:58:49;8.63;;;6.80;;
10529;SDS011;5313;48.834;9.228;2022-11-13T14:01:24;7.73;;;6.30;;
10529;SDS011;5313;48.834;9.228;2022-11-13T14:06:54;8.27;;;7.27;;
10529;SDS011;5313;48.834;9.228;2022-11-13T14:09:22;9.00;;;7.23;;
10529;SDS011;5313;48.834;9.228;2022-11-13T14:11:56;8.87;;;6.77;;
10529;SDS011;5313;48.834;9.228;2022-11-13T14:14:25;8.70;;;7.43;;
10529;SDS011;5313;48.834;9.228;2022-11-13T14:16:55;8.13;;;7.20;;
10529;SDS011;5313;48.834;9.228;2022-11-13T14:19:22;8.73;;;7.30;;
10529;SDS011;5313;48.834;9.228;2022-11-13T14:21:49;9.80;;;6.90;;
10529;SDS011;5313;48.834;9.228;2022-11-13T14:24:30;8.40;;;7.23;;
10529;SDS011;5313;48.834;9.228;2022-11-13T14:27:03;9.13;;;7.73;;
10529;SDS011;5313;48.834;9.228;2022-11-13T14:29:35;8.70;;;7.30;;
10529;SDS011;5313;48.834;9.228;2022-11-13T14:32:20;9.03;;;7.00;;
10529;SDS011;5313;48.834;9.228;2022-11-13T14:34:49;8.47;;;7.17;;
10529;SDS011;5313;48.834;9.228;2022-11-13T14:37:21;10.93;;;8.47;;
10529;SDS011;5313;48.834;9.228;2022-11-13T14:40:01;9.53;;;7.53;;
10529;SDS011;5313;48.834;9.228;2022-11-13T14:42:48;11.57;;;8.47;;
10529;SDS011;5313;48.834;9.228;2022-11-13T14:45:26;8.43;;;7.23;;
10529;SDS011;5313;48.834;9.228;2022-11-13T14:47:58;10.10;;;8.00;;
10529;SDS011;5313;48.834;9.228;2022-11-13T14:50:29;9.20;;;7.87;;
10529;SDS011;5313;48.834;9.228;2022-11-13T14:53:01;10.17;;;7.93;;
10529;SDS011;5313;48.834;9.228;2022-11-13T14:55:31;8.80;;;7.33;;
10529;SDS011;5313;48.834;9.228;2022-11-13T14:58:00;9.30;;;7.13;;
10529;SDS011;5313;48.834;9.228;2022-11-13T15:00:32;10.10;;;7.67;;
10529;SDS011;5313;48.834;9.228;2022-11-13T15:03:00;10.23;;;7.77;;
10529;SDS011;5313;48.834;9.228;2022-11-13T15:05:27;10.67;;;8.10;;
10529;SDS011;5313;48.834;9.228;2022-11-13T15:07:53;9.73;;;7.70;;
10529;SDS011;5313;48.834;9.228;2022-11-13T15:10:21;8.73;;;7.63;;
10529;SDS011;5313;48.834;9.228;2022-11-13T15:12:48;9.17;;;7.70;;
10529;SDS011;5313;48.834;9.228;2022-11-13T15:15:15;9.40;;;7.87;;
10529;SDS011;5313;48.834;9.228;2022-11-13T15:17:44;11.03;;;7.50;;
10529;SDS011;5313;48.834;9.228;2022-11-13T15:20:17;11.67;;;7.93;;
10529;SDS011;5313;48.834;9.228;2022-11-13T15:22:48;9.93;;;7.70;;
10529;SDS011;5313;48.834;9.228;2022-11-13T15:25:16;10.33;;;8.23;;
10529;SDS011;5313;48.834;9.228;2022-11-13T15:27:45;9.73;;;7.40;;
10529;SDS011;5313;48.834;9.228;2022-11-13T15:30:11;12.20;;;7.97;;
10529;SDS011;5313;48.834;9.228;2022-11-13T15:32:37;13.10;;;7.57;;
10529;SDS011;5313;48.834;9.228;2022-11-13T15:35:04;9.73;;;8.40;;
10529;SDS011;5313;48.834;9.228;2022-11-13T15:37:30;9.63;;;7.90;;
10529;SDS011;5313;48.834;9.228;2022-11-13T15:39:57;10.23;;;8.53;;
10529;SDS011;5313;48.834;9.228;2022-11-13T15:42:26;10.77;;;7.73;;
10529;SDS011;5313;48.834;9.228;2022-11-13T15:44:53;10.65;;;9.55;;
10529;SDS011;5313;48.834;9.228;2022-11-13T15:49:58;14.00;;;10.50;;
10529;SDS011;5313;48.834;9.228;2022-11-13T15:52:24;13.50;;;9.30;;
10529;SDS011;5313;48.834;9.228;2022-11-13T15:54:51;12.53;;;9.83;;
10529;SDS011;5313;48.834;9.228;2022-11-13T15:57:21;11.67;;;9.30;;
10529;SDS011;5313;48.834;9.228;2022-11-13T15:59:49;12.80;;;10.07;;